Alton, Illinois
Current Conditions -  °F | °C
As of 6:50 PM on Wednesday 22 Oct 2014 (Local Time) from KALN Reporting Station
Clear Clear  
Wind Chill: 11°   Ceiling: Unl
Heat Index: 11°   Visibility: 10mi
Dew Point:   Wind: 7mph
Humidity: 58%   Direction: 120°ESE
Pressure: 30.22"   Gusts: NA
Location:  38.89°N, 90.18°W
Report Text: KALN 222350Z 12006KT 10SM SKC 11/03 A3022
Loading
Personal Weather Stations






























Interactive Weather Map New forecast layout! Learn more

10-Day Weather Forecast

Advertisements
Track Severe Weather on mobile